sensor_id;sensor_type;location;lat;lon;timestamp;P1;durP1;ratioP1;P2;durP2;ratioP2
23068;SDS011;11702;50.856;4.348;2023-04-24T08:34:36;16.43;;;6.93;;
23068;SDS011;11702;50.856;4.348;2023-04-24T08:37:03;12.95;;;7.38;;
23068;SDS011;11702;50.856;4.348;2023-04-24T08:39:29;18.08;;;7.35;;
23068;SDS011;11702;50.856;4.348;2023-04-24T08:42:00;15.40;;;7.05;;
23068;SDS011;11702;50.856;4.348;2023-04-24T08:44:34;16.90;;;7.22;;
23068;SDS011;11702;50.856;4.348;2023-04-24T08:47:07;14.88;;;6.68;;
23068;SDS011;11702;50.856;4.348;2023-04-24T08:49:35;16.27;;;6.57;;
23068;SDS011;11702;50.856;4.348;2023-04-24T08:52:04;15.27;;;6.13;;
23068;SDS011;11702;50.856;4.348;2023-04-24T08:54:35;16.10;;;6.15;;
23068;SDS011;11702;50.856;4.348;2023-04-24T08:57:27;10.60;;;5.30;;
23068;SDS011;11702;50.856;4.348;2023-04-24T08:59:56;13.80;;;5.32;;
23068;SDS011;11702;50.856;4.348;2023-04-24T09:02:23;11.10;;;6.07;;
23068;SDS011;11702;50.856;4.348;2023-04-24T09:04:49;12.45;;;5.03;;
23068;SDS011;11702;50.856;4.348;2023-04-24T09:07:16;14.52;;;5.25;;
23068;SDS011;11702;50.856;4.348;2023-04-24T09:09:47;16.00;;;5.70;;
23068;SDS011;11702;50.856;4.348;2023-04-24T09:12:16;14.70;;;5.88;;
23068;SDS011;11702;50.856;4.348;2023-04-24T09:14:45;13.25;;;4.93;;
23068;SDS011;11702;50.856;4.348;2023-04-24T09:17:14;9.35;;;4.07;;
23068;SDS011;11702;50.856;4.348;2023-04-24T09:19:40;8.45;;;4.30;;
23068;SDS011;11702;50.856;4.348;2023-04-24T09:22:07;11.50;;;3.85;;
23068;SDS011;11702;50.856;4.348;2023-04-24T09:24:34;7.88;;;3.83;;
23068;SDS011;11702;50.856;4.348;2023-04-24T09:27:03;10.73;;;4.18;;
23068;SDS011;11702;50.856;4.348;2023-04-24T09:29:29;9.82;;;3.75;;
23068;SDS011;11702;50.856;4.348;2023-04-24T09:31:56;10.77;;;4.25;;
23068;SDS011;11702;50.856;4.348;2023-04-24T09:34:23;12.85;;;4.10;;
23068;SDS011;11702;50.856;4.348;2023-04-24T09:36:50;10.10;;;4.50;;
23068;SDS011;11702;50.856;4.348;2023-04-24T09:39:16;9.85;;;4.60;;
23068;SDS011;11702;50.856;4.348;2023-04-24T09:44:17;11.45;;;4.80;;
23068;SDS011;11702;50.856;4.348;2023-04-24T09:46:45;8.98;;;4.53;;
23068;SDS011;11702;50.856;4.348;2023-04-24T09:49:16;11.10;;;3.90;;
23068;SDS011;11702;50.856;4.348;2023-04-24T09:54:14;12.10;;;4.13;;
23068;SDS011;11702;50.856;4.348;2023-04-24T09:56:51;8.93;;;3.28;;
23068;SDS011;11702;50.856;4.348;2023-04-24T09:59:17;11.25;;;4.53;;
23068;SDS011;11702;50.856;4.348;2023-04-24T10:01:44;9.20;;;3.60;;
23068;SDS011;11702;50.856;4.348;2023-04-24T10:06:46;10.82;;;3.83;;
23068;SDS011;11702;50.856;4.348;2023-04-24T10:09:16;16.37;;;5.03;;
23068;SDS011;11702;50.856;4.348;2023-04-24T10:11:44;10.75;;;4.22;;
23068;SDS011;11702;50.856;4.348;2023-04-24T10:14:12;9.93;;;4.00;;
23068;SDS011;11702;50.856;4.348;2023-04-24T10:16:39;8.27;;;3.85;;
23068;SDS011;11702;50.856;4.348;2023-04-24T10:19:06;11.40;;;3.95;;
23068;SDS011;11702;50.856;4.348;2023-04-24T10:21:32;10.85;;;3.80;;
23068;SDS011;11702;50.856;4.348;2023-04-24T10:23:59;7.18;;;3.63;;
23068;SDS011;11702;50.856;4.348;2023-04-24T10:26:30;11.18;;;4.15;;
23068;SDS011;11702;50.856;4.348;2023-04-24T10:28:57;11.93;;;4.00;;
23068;SDS011;11702;50.856;4.348;2023-04-24T10:31:23;15.57;;;4.55;;
23068;SDS011;11702;50.856;4.348;2023-04-24T10:33:50;11.13;;;4.18;;
23068;SDS011;11702;50.856;4.348;2023-04-24T10:36:18;8.85;;;4.00;;
23068;SDS011;11702;50.856;4.348;2023-04-24T10:38:46;11.98;;;4.53;;
23068;SDS011;11702;50.856;4.348;2023-04-24T10:41:14;10.95;;;4.00;;
23068;SDS011;11702;50.856;4.348;2023-04-24T10:43:45;9.05;;;4.50;;
23068;SDS011;11702;50.856;4.348;2023-04-24T10:46:16;9.88;;;4.18;;
23068;SDS011;11702;50.856;4.348;2023-04-24T10:48:52;9.00;;;4.47;;
23068;SDS011;11702;50.856;4.348;2023-04-24T10:51:21;8.65;;;4.22;;
23068;SDS011;11702;50.856;4.348;2023-04-24T10:53:51;8.13;;;4.85;;
23068;SDS011;11702;50.856;4.348;2023-04-24T10:56:17;8.50;;;4.20;;
23068;SDS011;11702;50.856;4.348;2023-04-24T10:58:44;12.52;;;4.45;;
23068;SDS011;11702;50.856;4.348;2023-04-24T11:01:38;10.32;;;4.72;;
23068;SDS011;11702;50.856;4.348;2023-04-24T11:04:03;11.88;;;5.53;;
23068;SDS011;11702;50.856;4.348;2023-04-24T11:06:31;17.58;;;5.57;;
23068;SDS011;11702;50.856;4.348;2023-04-24T11:09:07;12.70;;;5.30;;
23068;SDS011;11702;50.856;4.348;2023-04-24T11:11:35;9.60;;;4.50;;
23068;SDS011;11702;50.856;4.348;2023-04-24T11:14:03;13.32;;;4.60;;
23068;SDS011;11702;50.856;4.348;2023-04-24T11:19:24;8.63;;;3.85;;
23068;SDS011;11702;50.856;4.348;2023-04-24T11:22:01;9.90;;;4.65;;
23068;SDS011;11702;50.856;4.348;2023-04-24T11:24:35;9.13;;;4.43;;
23068;SDS011;11702;50.856;4.348;2023-04-24T11:27:15;8.23;;;4.47;;
23068;SDS011;11702;50.856;4.348;2023-04-24T11:32:28;7.72;;;3.80;;
23068;SDS011;11702;50.856;4.348;2023-04-24T11:35:01;12.25;;;4.63;;
23068;SDS011;11702;50.856;4.348;2023-04-24T11:37:37;9.05;;;4.72;;
23068;SDS011;11702;50.856;4.348;2023-04-24T11:40:07;9.73;;;4.65;;
23068;SDS011;11702;50.856;4.348;2023-04-24T11:42:36;9.27;;;4.70;;
23068;SDS011;11702;50.856;4.348;2023-04-24T11:45:07;8.77;;;4.70;;
23068;SDS011;11702;50.856;4.348;2023-04-24T11:47:33;7.85;;;4.85;;
23068;SDS011;11702;50.856;4.348;2023-04-24T11:49:59;9.00;;;4.53;;
23068;SDS011;11702;50.856;4.348;2023-04-24T11:52:26;11.48;;;4.70;;
23068;SDS011;11702;50.856;4.348;2023-04-24T11:54:53;7.70;;;4.57;;
23068;SDS011;11702;50.856;4.348;2023-04-24T11:57:22;11.55;;;5.13;;
23068;SDS011;11702;50.856;4.348;2023-04-24T11:59:52;7.57;;;4.57;;
23068;SDS011;11702;50.856;4.348;2023-04-24T12:02:20;7.65;;;4.35;;
23068;SDS011;11702;50.856;4.348;2023-04-24T12:04:50;9.60;;;4.88;;
23068;SDS011;11702;50.856;4.348;2023-04-24T12:07:18;12.07;;;4.97;;
23068;SDS011;11702;50.856;4.348;2023-04-24T12:09:45;12.13;;;5.45;;
23068;SDS011;11702;50.856;4.348;2023-04-24T12:12:12;9.45;;;4.60;;
23068;SDS011;11702;50.856;4.348;2023-04-24T12:14:44;9.65;;;5.28;;
23068;SDS011;11702;50.856;4.348;2023-04-24T12:17:13;10.93;;;4.82;;
23068;SDS011;11702;50.856;4.348;2023-04-24T12:19:48;7.38;;;4.25;;
23068;SDS011;11702;50.856;4.348;2023-04-24T12:22:15;7.72;;;5.05;;
23068;SDS011;11702;50.856;4.348;2023-04-24T12:27:31;9.60;;;4.70;;
23068;SDS011;11702;50.856;4.348;2023-04-24T12:29:58;8.90;;;4.80;;
23068;SDS011;11702;50.856;4.348;2023-04-24T12:32:25;7.32;;;4.53;;
23068;SDS011;11702;50.856;4.348;2023-04-24T12:34:51;9.55;;;4.60;;
23068;SDS011;11702;50.856;4.348;2023-04-24T12:37:18;8.80;;;4.25;;
23068;SDS011;11702;50.856;4.348;2023-04-24T12:40:06;6.72;;;3.67;;
23068;SDS011;11702;50.856;4.348;2023-04-24T12:45:14;10.82;;;3.85;;
23068;SDS011;11702;50.856;4.348;2023-04-24T12:47:41;8.95;;;4.45;;
23068;SDS011;11702;50.856;4.348;2023-04-24T12:50:09;6.50;;;4.13;;
23068;SDS011;11702;50.856;4.348;2023-04-24T12:52:36;8.55;;;4.75;;
23068;SDS011;11702;50.856;4.348;2023-04-24T12:55:04;9.55;;;3.92;;
23068;SDS011;11702;50.856;4.348;2023-04-24T12:57:33;7.45;;;3.75;;
23068;SDS011;11702;50.856;4.348;2023-04-24T13:00:00;6.40;;;3.70;;
23068;SDS011;11702;50.856;4.348;2023-04-24T13:02:27;11.80;;;3.90;;
23068;SDS011;11702;50.856;4.348;2023-04-24T13:04:56;7.57;;;4.35;;
23068;SDS011;11702;50.856;4.348;2023-04-24T13:07:35;11.05;;;4.70;;
23068;SDS011;11702;50.856;4.348;2023-04-24T13:10:01;5.53;;;3.47;;
23068;SDS011;11702;50.856;4.348;2023-04-24T13:12:30;7.53;;;3.60;;
23068;SDS011;11702;50.856;4.348;2023-04-24T13:14:55;9.15;;;4.03;;
23068;SDS011;11702;50.856;4.348;2023-04-24T13:17:22;9.98;;;3.55;;
23068;SDS011;11702;50.856;4.348;2023-04-24T13:19:49;9.23;;;4.82;;
23068;SDS011;11702;50.856;4.348;2023-04-24T13:22:16;7.00;;;3.60;;
23068;SDS011;11702;50.856;4.348;2023-04-24T13:24:46;9.48;;;3.25;;
23068;SDS011;11702;50.856;4.348;2023-04-24T13:27:16;10.23;;;3.50;;
23068;SDS011;11702;50.856;4.348;2023-04-24T13:29:59;4.47;;;3.13;;
23068;SDS011;11702;50.856;4.348;2023-04-24T13:32:25;5.45;;;2.80;;
23068;SDS011;11702;50.856;4.348;2023-04-24T13:34:53;3.85;;;2.60;;
23068;SDS011;11702;50.856;4.348;2023-04-24T13:37:19;7.45;;;3.03;;
23068;SDS011;11702;50.856;4.348;2023-04-24T13:39:48;5.22;;;3.00;;
23068;SDS011;11702;50.856;4.348;2023-04-24T13:42:15;5.63;;;3.15;;
23068;SDS011;11702;50.856;4.348;2023-04-24T13:44:41;7.43;;;3.08;;
23068;SDS011;11702;50.856;4.348;2023-04-24T13:47:09;7.50;;;2.75;;
23068;SDS011;11702;50.856;4.348;2023-04-24T13:49:35;6.43;;;3.00;;
23068;SDS011;11702;50.856;4.348;2023-04-24T13:52:01;6.35;;;2.78;;
23068;SDS011;11702;50.856;4.348;2023-04-24T13:54:27;5.13;;;2.80;;
23068;SDS011;11702;50.856;4.348;2023-04-24T13:56:55;12.85;;;3.47;;
23068;SDS011;11702;50.856;4.348;2023-04-24T13:59:24;5.93;;;2.53;;
23068;SDS011;11702;50.856;4.348;2023-04-24T14:01:59;4.43;;;2.33;;
23068;SDS011;11702;50.856;4.348;2023-04-24T14:04:24;4.70;;;2.22;;
23068;SDS011;11702;50.856;4.348;2023-04-24T14:06:50;4.90;;;2.33;;
23068;SDS011;11702;50.856;4.348;2023-04-24T14:09:16;4.65;;;2.70;;
23068;SDS011;11702;50.856;4.348;2023-04-24T14:11:42;6.00;;;2.30;;
23068;SDS011;11702;50.856;4.348;2023-04-24T14:14:07;6.05;;;2.08;;
23068;SDS011;11702;50.856;4.348;2023-04-24T14:16:33;11.18;;;2.60;;
23068;SDS011;11702;50.856;4.348;2023-04-24T14:19:01;4.85;;;2.80;;
23068;SDS011;11702;50.856;4.348;2023-04-24T14:21:26;5.47;;;1.65;;
23068;SDS011;11702;50.856;4.348;2023-04-24T14:23:52;5.32;;;2.00;;
23068;SDS011;11702;50.856;4.348;2023-04-24T14:26:18;4.10;;;2.13;;
23068;SDS011;11702;50.856;4.348;2023-04-24T14:28:44;5.65;;;1.80;;
23068;SDS011;11702;50.856;4.348;2023-04-24T14:31:10;5.43;;;2.58;;
23068;SDS011;11702;50.856;4.348;2023-04-24T14:33:38;7.57;;;2.58;;
23068;SDS011;11702;50.856;4.348;2023-04-24T14:36:03;3.67;;;2.05;;
23068;SDS011;11702;50.856;4.348;2023-04-24T14:38:32;4.57;;;2.42;;
23068;SDS011;11702;50.856;4.348;2023-04-24T14:56:27;6.72;;;2.42;;
23068;SDS011;11702;50.856;4.348;2023-04-24T14:58:52;8.75;;;2.90;;
23068;SDS011;11702;50.856;4.348;2023-04-24T15:01:18;5.05;;;2.45;;
23068;SDS011;11702;50.856;4.348;2023-04-24T15:03:44;6.75;;;2.20;;
23068;SDS011;11702;50.856;4.348;2023-04-24T15:06:10;5.60;;;2.20;;
23068;SDS011;11702;50.856;4.348;2023-04-24T15:08:36;6.63;;;2.28;;
23068;SDS011;11702;50.856;4.348;2023-04-24T15:11:02;2.90;;;2.03;;
23068;SDS011;11702;50.856;4.348;2023-04-24T15:13:27;5.88;;;2.50;;
23068;SDS011;11702;50.856;4.348;2023-04-24T15:15:53;5.50;;;2.00;;
23068;SDS011;11702;50.856;4.348;2023-04-24T15:18:20;7.45;;;2.03;;
23068;SDS011;11702;50.856;4.348;2023-04-24T15:20:46;5.30;;;2.25;;
23068;SDS011;11702;50.856;4.348;2023-04-24T15:23:12;5.50;;;2.45;;
23068;SDS011;11702;50.856;4.348;2023-04-24T15:25:37;9.52;;;2.70;;
23068;SDS011;11702;50.856;4.348;2023-04-24T15:28:03;5.40;;;2.00;;
23068;SDS011;11702;50.856;4.348;2023-04-24T15:30:32;8.38;;;2.90;;
23068;SDS011;11702;50.856;4.348;2023-04-24T15:32:59;4.25;;;1.85;;
23068;SDS011;11702;50.856;4.348;2023-04-24T15:35:25;5.55;;;1.70;;
23068;SDS011;11702;50.856;4.348;2023-04-24T15:37:51;3.05;;;1.80;;
23068;SDS011;11702;50.856;4.348;2023-04-24T15:40:17;4.28;;;2.00;;
23068;SDS011;11702;50.856;4.348;2023-04-24T15:42:43;4.72;;;2.22;;
23068;SDS011;11702;50.856;4.348;2023-04-24T15:45:10;4.35;;;1.88;;
23068;SDS011;11702;50.856;4.348;2023-04-24T15:47:36;5.43;;;2.00;;
23068;SDS011;11702;50.856;4.348;2023-04-24T15:50:02;5.68;;;2.15;;
23068;SDS011;11702;50.856;4.348;2023-04-24T15:52:28;3.83;;;1.60;;
23068;SDS011;11702;50.856;4.348;2023-04-24T15:54:54;3.75;;;2.00;;
23068;SDS011;11702;50.856;4.348;2023-04-24T15:57:20;5.25;;;2.15;;
23068;SDS011;11702;50.856;4.348;2023-04-24T15:59:46;6.15;;;1.73;;
23068;SDS011;11702;50.856;4.348;2023-04-24T16:02:12;6.18;;;2.15;;
23068;SDS011;11702;50.856;4.348;2023-04-24T16:04:45;9.82;;;2.10;;
23068;SDS011;11702;50.856;4.348;2023-04-24T16:07:11;5.68;;;2.00;;
23068;SDS011;11702;50.856;4.348;2023-04-24T16:09:38;7.30;;;2.65;;
23068;SDS011;11702;50.856;4.348;2023-04-24T16:12:04;8.77;;;2.40;;
23068;SDS011;11702;50.856;4.348;2023-04-24T16:14:30;6.35;;;2.17;;
23068;SDS011;11702;50.856;4.348;2023-04-24T16:16:59;4.47;;;1.83;;
23068;SDS011;11702;50.856;4.348;2023-04-24T16:19:26;6.88;;;2.08;;
23068;SDS011;11702;50.856;4.348;2023-04-24T16:21:52;2.00;;;1.50;;
23068;SDS011;11702;50.856;4.348;2023-04-24T16:24:20;4.38;;;1.85;;
23068;SDS011;11702;50.856;4.348;2023-04-24T16:26:47;5.07;;;1.67;;
23068;SDS011;11702;50.856;4.348;2023-04-24T16:29:13;3.97;;;2.00;;
23068;SDS011;11702;50.856;4.348;2023-04-24T16:31:39;5.72;;;1.95;;
23068;SDS011;11702;50.856;4.348;2023-04-24T16:34:05;6.80;;;1.92;;
23068;SDS011;11702;50.856;4.348;2023-04-24T16:36:31;6.70;;;2.30;;
23068;SDS011;11702;50.856;4.348;2023-04-24T16:38:57;5.88;;;2.00;;
23068;SDS011;11702;50.856;4.348;2023-04-24T16:41:25;5.47;;;1.90;;
23068;SDS011;11702;50.856;4.348;2023-04-24T16:43:51;3.70;;;1.55;;
23068;SDS011;11702;50.856;4.348;2023-04-24T16:46:17;6.03;;;2.40;;
23068;SDS011;11702;50.856;4.348;2023-04-24T16:48:43;7.15;;;2.80;;
23068;SDS011;11702;50.856;4.348;2023-04-24T16:51:09;6.85;;;2.67;;
23068;SDS011;11702;50.856;4.348;2023-04-24T16:53:37;5.18;;;2.83;;
23068;SDS011;11702;50.856;4.348;2023-04-24T16:56:03;5.68;;;2.60;;
23068;SDS011;11702;50.856;4.348;2023-04-24T16:58:29;7.32;;;2.30;;
23068;SDS011;11702;50.856;4.348;2023-04-24T17:00:55;9.38;;;2.78;;
23068;SDS011;11702;50.856;4.348;2023-04-24T17:03:21;4.88;;;2.30;;
23068;SDS011;11702;50.856;4.348;2023-04-24T17:05:48;7.70;;;3.22;;
23068;SDS011;11702;50.856;4.348;2023-04-24T17:08:14;7.25;;;2.40;;
23068;SDS011;11702;50.856;4.348;2023-04-24T17:10:40;5.20;;;2.40;;
23068;SDS011;11702;50.856;4.348;2023-04-24T17:13:06;4.90;;;2.22;;
23068;SDS011;11702;50.856;4.348;2023-04-24T17:15:32;4.15;;;2.00;;
23068;SDS011;11702;50.856;4.348;2023-04-24T17:17:59;4.50;;;2.72;;
23068;SDS011;11702;50.856;4.348;2023-04-24T17:20:25;6.15;;;2.95;;
23068;SDS011;11702;50.856;4.348;2023-04-24T17:22:51;3.45;;;2.55;;
23068;SDS011;11702;50.856;4.348;2023-04-24T17:25:17;8.95;;;3.30;;
23068;SDS011;11702;50.856;4.348;2023-04-24T17:27:43;8.93;;;3.80;;
23068;SDS011;11702;50.856;4.348;2023-04-24T17:30:09;7.03;;;4.05;;
23068;SDS011;11702;50.856;4.348;2023-04-24T17:32:35;8.70;;;4.07;;
23068;SDS011;11702;50.856;4.348;2023-04-24T17:35:01;8.50;;;4.38;;
23068;SDS011;11702;50.856;4.348;2023-04-24T17:37:27;9.93;;;4.30;;
23068;SDS011;11702;50.856;4.348;2023-04-24T17:39:53;8.93;;;4.25;;
23068;SDS011;11702;50.856;4.348;2023-04-24T17:42:19;5.85;;;4.07;;
23068;SDS011;11702;50.856;4.348;2023-04-24T17:44:46;6.35;;;4.40;;
23068;SDS011;11702;50.856;4.348;2023-04-24T17:47:12;10.85;;;5.00;;
23068;SDS011;11702;50.856;4.348;2023-04-24T17:49:38;8.93;;;4.30;;
23068;SDS011;11702;50.856;4.348;2023-04-24T17:52:04;14.02;;;5.25;;
23068;SDS011;11702;50.856;4.348;2023-04-24T17:54:30;10.85;;;4.80;;
23068;SDS011;11702;50.856;4.348;2023-04-24T17:56:59;8.93;;;4.38;;
23068;SDS011;11702;50.856;4.348;2023-04-24T17:59:26;8.75;;;4.88;;
23068;SDS011;11702;50.856;4.348;2023-04-24T18:01:52;9.88;;;3.88;;
23068;SDS011;11702;50.856;4.348;2023-04-24T18:04:21;10.90;;;4.10;;
23068;SDS011;11702;50.856;4.348;2023-04-24T18:06:47;9.52;;;6.68;;
23068;SDS011;11702;50.856;4.348;2023-04-24T18:09:12;6.55;;;3.20;;
23068;SDS011;11702;50.856;4.348;2023-04-24T18:11:40;4.28;;;3.22;;
23068;SDS011;11702;50.856;4.348;2023-04-24T18:14:06;11.10;;;6.70;;
23068;SDS011;11702;50.856;4.348;2023-04-24T18:16:33;9.75;;;2.78;;
23068;SDS011;11702;50.856;4.348;2023-04-24T18:18:58;4.30;;;2.55;;
23068;SDS011;11702;50.856;4.348;2023-04-24T18:21:24;4.13;;;2.50;;
23068;SDS011;11702;50.856;4.348;2023-04-24T18:23:51;6.43;;;2.58;;
23068;SDS011;11702;50.856;4.348;2023-04-24T18:26:19;8.43;;;2.58;;
23068;SDS011;11702;50.856;4.348;2023-04-24T18:28:44;10.65;;;3.35;;
23068;SDS011;11702;50.856;4.348;2023-04-24T18:31:11;9.55;;;3.47;;
23068;SDS011;11702;50.856;4.348;2023-04-24T18:33:36;6.63;;;2.70;;
23068;SDS011;11702;50.856;4.348;2023-04-24T18:36:02;6.93;;;2.80;;
23068;SDS011;11702;50.856;4.348;2023-04-24T18:38:28;8.10;;;3.55;;
23068;SDS011;11702;50.856;4.348;2023-04-24T18:40:56;7.32;;;3.00;;
23068;SDS011;11702;50.856;4.348;2023-04-24T18:43:22;6.07;;;3.05;;
23068;SDS011;11702;50.856;4.348;2023-04-24T18:45:47;6.30;;;3.35;;
23068;SDS011;11702;50.856;4.348;2023-04-24T18:48:13;5.22;;;3.05;;
23068;SDS011;11702;50.856;4.348;2023-04-24T18:50:39;8.77;;;3.20;;
23068;SDS011;11702;50.856;4.348;2023-04-24T18:53:05;7.43;;;3.45;;
23068;SDS011;11702;50.856;4.348;2023-04-24T18:55:33;8.50;;;3.28;;
23068;SDS011;11702;50.856;4.348;2023-04-24T18:58:00;8.38;;;3.13;;
23068;SDS011;11702;50.856;4.348;2023-04-24T19:00:26;9.13;;;4.00;;
23068;SDS011;11702;50.856;4.348;2023-04-24T19:02:52;10.82;;;3.50;;
23068;SDS011;11702;50.856;4.348;2023-04-24T19:05:18;8.90;;;3.97;;
23068;SDS011;11702;50.856;4.348;2023-04-24T19:07:44;12.68;;;5.15;;
23068;SDS011;11702;50.856;4.348;2023-04-24T19:10:09;9.60;;;4.30;;
23068;SDS011;11702;50.856;4.348;2023-04-24T19:12:35;12.18;;;4.53;;
23068;SDS011;11702;50.856;4.348;2023-04-24T19:15:01;8.30;;;4.38;;
23068;SDS011;11702;50.856;4.348;2023-04-24T19:17:27;10.50;;;4.82;;
23068;SDS011;11702;50.856;4.348;2023-04-24T19:19:52;9.77;;;4.85;;
23068;SDS011;11702;50.856;4.348;2023-04-24T19:22:18;8.82;;;4.22;;
23068;SDS011;11702;50.856;4.348;2023-04-24T19:24:44;10.77;;;4.45;;
23068;SDS011;11702;50.856;4.348;2023-04-24T19:27:10;8.50;;;4.47;;
23068;SDS011;11702;50.856;4.348;2023-04-24T19:29:36;15.18;;;5.35;;
23068;SDS011;11702;50.856;4.348;2023-04-24T19:32:02;12.80;;;4.85;;
23068;SDS011;11702;50.856;4.348;2023-04-24T19:34:28;14.65;;;4.47;;
23068;SDS011;11702;50.856;4.348;2023-04-24T19:36:56;10.93;;;4.18;;
23068;SDS011;11702;50.856;4.348;2023-04-24T19:39:21;9.15;;;4.05;;
23068;SDS011;11702;50.856;4.348;2023-04-24T19:41:47;9.80;;;4.28;;
23068;SDS011;11702;50.856;4.348;2023-04-24T19:44:12;8.60;;;4.03;;
23068;SDS011;11702;50.856;4.348;2023-04-24T19:46:39;10.77;;;4.03;;
23068;SDS011;11702;50.856;4.348;2023-04-24T19:49:05;8.68;;;3.90;;
23068;SDS011;11702;50.856;4.348;2023-04-24T19:51:31;9.55;;;3.72;;
23068;SDS011;11702;50.856;4.348;2023-04-24T19:53:57;6.90;;;3.80;;
23068;SDS011;11702;50.856;4.348;2023-04-24T19:56:23;20.42;;;4.60;;
23068;SDS011;11702;50.856;4.348;2023-04-24T19:58:49;10.07;;;4.00;;
23068;SDS011;11702;50.856;4.348;2023-04-24T20:01:14;11.10;;;3.88;;
23068;SDS011;11702;50.856;4.348;2023-04-24T20:03:40;10.02;;;3.95;;
23068;SDS011;11702;50.856;4.348;2023-04-24T20:06:05;9.48;;;3.85;;
23068;SDS011;11702;50.856;4.348;2023-04-24T20:08:31;9.00;;;3.83;;
23068;SDS011;11702;50.856;4.348;2023-04-24T20:10:57;11.82;;;4.38;;
23068;SDS011;11702;50.856;4.348;2023-04-24T20:13:23;14.32;;;4.68;;
23068;SDS011;11702;50.856;4.348;2023-04-24T20:15:51;11.80;;;4.25;;
23068;SDS011;11702;50.856;4.348;2023-04-24T20:18:17;8.77;;;4.22;;
23068;SDS011;11702;50.856;4.348;2023-04-24T20:20:43;13.82;;;4.47;;
23068;SDS011;11702;50.856;4.348;2023-04-24T20:23:09;11.95;;;3.85;;
23068;SDS011;11702;50.856;4.348;2023-04-24T20:25:35;9.90;;;4.50;;
23068;SDS011;11702;50.856;4.348;2023-04-24T20:28:01;14.88;;;4.72;;
23068;SDS011;11702;50.856;4.348;2023-04-24T20:30:27;13.18;;;5.25;;
23068;SDS011;11702;50.856;4.348;2023-04-24T20:32:55;9.70;;;4.82;;
23068;SDS011;11702;50.856;4.348;2023-04-24T20:35:22;10.85;;;5.05;;
23068;SDS011;11702;50.856;4.348;2023-04-24T20:37:48;9.48;;;4.63;;
23068;SDS011;11702;50.856;4.348;2023-04-24T20:40:13;12.98;;;5.72;;
23068;SDS011;11702;50.856;4.348;2023-04-24T20:42:40;13.30;;;5.05;;
23068;SDS011;11702;50.856;4.348;2023-04-24T20:45:06;15.95;;;5.40;;
23068;SDS011;11702;50.856;4.348;2023-04-24T20:47:32;11.70;;;4.93;;
23068;SDS011;11702;50.856;4.348;2023-04-24T20:49:57;12.55;;;5.65;;
23068;SDS011;11702;50.856;4.348;2023-04-24T20:52:26;11.43;;;4.97;;
23068;SDS011;11702;50.856;4.348;2023-04-24T20:54:51;13.00;;;6.57;;
23068;SDS011;11702;50.856;4.348;2023-04-24T20:57:17;10.43;;;4.63;;
23068;SDS011;11702;50.856;4.348;2023-04-24T20:59:43;13.27;;;5.65;;
23068;SDS011;11702;50.856;4.348;2023-04-24T21:02:08;17.00;;;4.90;;
23068;SDS011;11702;50.856;4.348;2023-04-24T21:04:34;19.58;;;5.45;;
23068;SDS011;11702;50.856;4.348;2023-04-24T21:07:02;16.20;;;5.53;;
23068;SDS011;11702;50.856;4.348;2023-04-24T21:09:28;15.85;;;5.72;;
23068;SDS011;11702;50.856;4.348;2023-04-24T21:11:53;13.23;;;5.72;;
23068;SDS011;11702;50.856;4.348;2023-04-24T21:14:20;14.80;;;5.20;;
23068;SDS011;11702;50.856;4.348;2023-04-24T21:16:45;17.17;;;5.72;;
23068;SDS011;11702;50.856;4.348;2023-04-24T21:19:11;14.05;;;5.10;;
23068;SDS011;11702;50.856;4.348;2023-04-24T21:21:37;13.63;;;5.20;;
23068;SDS011;11702;50.856;4.348;2023-04-24T21:24:02;14.32;;;5.15;;
23068;SDS011;11702;50.856;4.348;2023-04-24T21:26:28;21.42;;;5.65;;
23068;SDS011;11702;50.856;4.348;2023-04-24T21:28:54;13.80;;;5.22;;
23068;SDS011;11702;50.856;4.348;2023-04-24T21:31:20;10.70;;;5.20;;
23068;SDS011;11702;50.856;4.348;2023-04-24T21:33:46;15.15;;;5.70;;
23068;SDS011;11702;50.856;4.348;2023-04-24T21:36:11;13.43;;;5.35;;
23068;SDS011;11702;50.856;4.348;2023-04-24T21:38:37;13.30;;;5.30;;
23068;SDS011;11702;50.856;4.348;2023-04-24T21:41:04;10.55;;;4.40;;
23068;SDS011;11702;50.856;4.348;2023-04-24T21:43:30;9.70;;;5.38;;
23068;SDS011;11702;50.856;4.348;2023-04-24T21:45:55;17.67;;;6.15;;
23068;SDS011;11702;50.856;4.348;2023-04-24T21:48:21;11.90;;;4.88;;
23068;SDS011;11702;50.856;4.348;2023-04-24T21:50:47;12.43;;;4.93;;
23068;SDS011;11702;50.856;4.348;2023-04-24T21:53:13;17.77;;;5.85;;
23068;SDS011;11702;50.856;4.348;2023-04-24T21:55:39;12.25;;;5.15;;
23068;SDS011;11702;50.856;4.348;2023-04-24T21:58:05;9.73;;;5.38;;
23068;SDS011;11702;50.856;4.348;2023-04-24T22:00:31;17.73;;;5.57;;
23068;SDS011;11702;50.856;4.348;2023-04-24T22:02:56;14.57;;;5.00;;
23068;SDS011;11702;50.856;4.348;2023-04-24T22:05:22;15.48;;;5.43;;
23068;SDS011;11702;50.856;4.348;2023-04-24T22:07:48;13.63;;;4.70;;
23068;SDS011;11702;50.856;4.348;2023-04-24T22:10:14;10.30;;;4.90;;
23068;SDS011;11702;50.856;4.348;2023-04-24T22:12:42;16.98;;;5.18;;
23068;SDS011;11702;50.856;4.348;2023-04-24T22:15:08;8.90;;;4.18;;
23068;SDS011;11702;50.856;4.348;2023-04-24T22:17:34;16.15;;;5.28;;
23068;SDS011;11702;50.856;4.348;2023-04-24T22:20:01;14.48;;;5.13;;
23068;SDS011;11702;50.856;4.348;2023-04-24T22:22:27;12.05;;;4.47;;
23068;SDS011;11702;50.856;4.348;2023-04-24T22:24:52;14.05;;;4.47;;
23068;SDS011;11702;50.856;4.348;2023-04-24T22:27:18;16.02;;;4.75;;
23068;SDS011;11702;50.856;4.348;2023-04-24T22:29:44;17.63;;;4.40;;
23068;SDS011;11702;50.856;4.348;2023-04-24T22:32:09;13.02;;;4.72;;
23068;SDS011;11702;50.856;4.348;2023-04-24T22:34:35;10.68;;;4.03;;
23068;SDS011;11702;50.856;4.348;2023-04-24T22:37:01;13.88;;;4.90;;
23068;SDS011;11702;50.856;4.348;2023-04-24T22:39:26;16.98;;;5.07;;
23068;SDS011;11702;50.856;4.348;2023-04-24T22:41:52;19.80;;;5.40;;
23068;SDS011;11702;50.856;4.348;2023-04-24T22:44:18;21.08;;;5.78;;
23068;SDS011;11702;50.856;4.348;2023-04-24T22:46:44;14.55;;;4.47;;
23068;SDS011;11702;50.856;4.348;2023-04-24T22:49:11;13.65;;;5.53;;
23068;SDS011;11702;50.856;4.348;2023-04-24T22:51:37;21.80;;;4.90;;
23068;SDS011;11702;50.856;4.348;2023-04-24T22:54:03;17.80;;;4.85;;
23068;SDS011;11702;50.856;4.348;2023-04-24T22:56:29;17.73;;;4.63;;
